Date,TemperatureHighF,TemperatureAvgF,TemperatureLowF,DewpointHighF,DewpointAvgF,DewpointLowF,HumidityHigh,HumidityAvg,HumidityLow,PressureMaxIn,PressureMinIn,WindSpeedMaxMPH,WindSpeedAvgMPH,GustSpeedMaxMPH,PrecipitationSumIn
2013-1-1,22.0,6.9,-7.6,16.8,1.0,-13.5,81,76,73,30.53,30.27,11,1,11,0.00
2013-1-2,23.8,20.1,17.5,19.1,15.4,13.1,85,82,78,30.34,30.19,8,1,8,0.00
2013-1-3,19.1,13.7,8.6,13.2,7.9,3.2,81,77,73,30.53,30.34,12,1,12,0.00
2013-1-4,29.9,21.3,12.2,20.2,14.6,6.9,82,75,66,30.36,30.26,10,2,10,0.00
2013-1-5,26.1,15.3,5.8,18.1,9.4,0.9,84,77,67,30.33,30.10,10,2,10,0.00
2013-1-6,22.3,15.4,10.4,15.5,9.7,4.5,82,78,73,30.48,30.24,11,2,11,0.00
2013-1-7,38.0,29.6,20.5,28.6,22.9,15.7,82,76,69,30.23,30.12,13,2,13,0.02
2013-1-8,35.6,26.8,15.3,29.3,21.7,10.8,85,81,76,30.21,29.99,12,2,12,0.01
2013-1-9,32.8,31.6,31.1,27.9,26.6,25.8,83,81,80,30.21,30.15,10,4,10,0.00
2013-1-11,40.7,39.9,38.5,38.3,37.4,35.6,91,91,89,29.64,29.62,11,3,11,0.01
2013-1-12,38.5,12.9,5.8,35.6,5.9,-1.2,89,73,67,30.34,29.63,17,6,17,0.14
2013-1-13,10.6,6.4,2.9,3.1,-0.2,-3.3,78,74,71,30.47,30.31,11,3,11,0.00
2013-1-14,13.9,8.8,4.5,6.9,2.9,-0.6,81,76,70,30.64,30.47,12,2,12,0.00
2013-1-15,30.8,18.3,5.2,22.0,11.7,0.5,84,76,65,30.49,30.05,16,3,16,0.00
2013-1-16,38.5,27.4,11.0,32.8,21.5,2.3,86,78,66,30.46,29.89,17,4,17,0.01
2013-1-17,21.2,13.5,4.5,14.0,6.0,-2.5,79,72,63,30.62,30.46,11,2,11,0.00
2013-1-18,43.6,32.5,19.4,34.8,26.1,14.0,83,77,68,30.48,29.95,14,3,14,0.01
2013-1-19,40.7,24.6,4.0,33.1,17.7,-4.3,88,75,59,30.48,29.89,31,6,31,2.06
2013-1-20,10.3,4.8,-0.7,1.8,-3.5,-9.4,72,68,64,30.65,30.48,18,5,18,0.00
2013-1-21,-0.7,-4.4,-8.6,-9.4,-12.8,-16.9,73,67,63,30.61,30.54,16,5,16,0.00
2013-1-22,9.9,-0.6,-7.6,1.5,-8.2,-14.5,73,70,66,30.65,30.47,8,1,8,0.00
2013-1-23,16.6,9.7,-0.5,9.3,0.8,-12.2,78,67,56,30.85,30.38,19,4,19,0.00
2013-1-24,16.7,6.8,-1.6,5.4,-4.1,-12.6,63,60,58,30.90,30.40,12,2,12,0.00
2013-1-25,21.2,14.0,5.6,14.1,4.7,-3.0,75,66,59,30.55,30.21,24,5,24,0.00
2013-1-26,27.0,15.3,2.0,14.7,5.9,-4.9,76,66,58,30.58,30.32,7,1,7,0.00
2013-1-27,34.2,31.3,25.6,30.2,24.1,14.7,88,75,62,30.32,30.03,6,1,6,0.37
2013-1-28,37.4,34.6,33.1,33.6,31.3,29.6,90,88,86,30.13,29.86,6,1,6,0.17
2013-1-29,37.4,34.0,29.5,32.8,29.8,23.8,92,85,78,29.99,29.77,15,3,15,0.02
2013-1-30,29.7,19.1,9.2,23.8,12.4,2.8,80,75,69,30.04,29.90,19,6,19,0.00
2013-1-31,9.2,0.9,-6.3,2.8,-6.5,-13.8,76,71,65,30.55,30.04,20,7,20,0.01
2013-2-1,12.2,1.0,-8.6,6.1,-6.1,-15.6,79,72,66,30.58,30.27,10,2,10,0.00
2013-2-2,14.0,9.6,4.5,8.4,3.2,-1.6,79,75,67,30.42,30.20,9,1,9,0.00
2013-2-3,17.8,13.2,6.3,10.0,6.8,0.3,82,75,68,30.35,30.19,14,3,14,0.00
2013-2-4,19.1,12.6,3.2,12.7,5.7,-1.6,82,74,61,30.31,29.98,10,1,10,0.00
2013-2-5,32.2,23.3,7.2,27.5,17.5,1.8,86,78,72,30.33,29.90,13,3,13,0.00
2013-2-6,35.6,19.5,2.0,27.8,13.7,-3.4,82,78,73,30.35,30.13,9,1,9,0.02
2013-2-7,28.6,26.7,22.7,24.3,21.9,17.7,87,82,77,30.48,30.19,19,4,19,0.00
2013-2-8,30.4,27.2,23.4,22.9,20.9,17.3,80,77,73,30.59,30.44,7,2,7,0.00
2013-2-9,35.3,30.9,27.5,29.8,26.1,22.3,85,82,80,30.45,30.14,10,2,10,0.00
2013-2-10,35.5,33.1,31.0,32.5,29.8,26.5,91,88,83,30.14,29.51,14,2,14,0.10
2013-2-11,31.1,25.8,18.7,28.6,20.3,12.9,90,79,73,30.30,29.61,21,7,21,0.00
2013-2-12,36.7,26.5,16.0,28.3,20.2,11.4,84,77,69,30.30,30.08,12,3,12,0.08
2013-2-15,13.3,9.6,6.7,5.4,2.9,0.6,76,74,70,30.55,30.51,4,2,4,0.00
2013-2-16,18.7,12.4,6.1,10.8,6.2,0.4,81,76,71,30.51,30.33,2,1,2,0.00
2013-2-17,35.6,22.6,6.8,27.2,16.1,1.7,83,76,70,30.33,29.85,5,1,5,0.01
2013-2-18,34.2,23.2,6.3,29.5,17.1,0.9,83,77,72,30.10,29.76,13,6,13,0.06
2013-2-19,6.3,2.1,-4.0,1.2,-5.4,-11.1,80,70,64,30.63,30.10,15,7,15,0.01
2013-2-20,14.6,3.9,-7.2,4.9,-3.7,-13.9,74,70,65,30.69,30.61,3,1,3,0.00
2013-2-21,24.3,14.1,-1.1,13.9,6.1,-6.8,80,71,61,30.65,30.29,9,3,9,0.00
2013-2-22,29.7,24.1,21.6,22.5,18.8,13.9,85,80,69,30.28,30.10,8,3,8,0.02
2013-2-23,28.6,21.1,9.7,22.0,15.6,4.8,83,79,75,30.21,30.10,7,2,7,0.01
2013-2-24,32.8,17.4,0.2,23.7,11.0,-4.6,82,76,67,30.33,30.20,3,0,3,0.02
2013-2-25,35.8,28.5,17.5,27.2,21.6,12.0,80,75,69,30.34,30.27,3,1,3,0.00
2013-2-26,35.5,25.9,11.3,27.6,20.1,6.8,84,79,73,30.28,30.11,10,3,10,0.00
2013-2-27,31.0,30.4,30.1,24.6,24.2,24.0,78,78,77,30.12,30.11,8,4,8,0.00
2013-3-1,30.4,26.4,18.7,20.0,17.2,11.1,74,68,63,30.59,30.53,9,3,9,0.00
2013-3-2,28.1,19.0,5.6,17.6,11.2,0.2,81,72,62,30.58,30.41,3,1,3,0.00
2013-3-3,35.6,28.4,22.7,20.6,16.8,14.0,69,62,53,30.41,30.19,7,2,7,0.00
2013-3-4,30.6,27.7,25.4,23.2,20.3,17.0,84,74,60,30.26,30.15,7,3,7,0.00
2013-3-5,32.0,27.8,22.9,25.7,22.9,17.9,86,82,73,30.54,30.19,9,2,9,0.02
2013-3-6,31.1,25.1,13.9,22.3,18.3,7.9,81,75,68,30.65,30.54,7,2,7,0.00
2013-3-7,33.1,19.7,4.7,23.7,13.0,-0.4,82,75,68,30.60,30.50,5,1,5,0.04
2013-3-8,39.6,27.6,10.4,31.6,21.6,5.7,83,78,72,30.54,30.31,5,1,5,0.07
2013-3-9,38.3,36.6,34.9,35.1,33.1,30.1,91,87,80,30.32,29.93,3,1,3,0.77
2013-3-10,35.5,34.2,30.8,32.7,29.4,24.8,91,83,78,30.19,30.01,15,5,15,0.06
2013-3-11,31.7,28.4,23.2,25.0,22.0,17.1,81,77,69,30.11,30.01,7,0,7,0.00
2013-3-12,29.0,24.8,20.7,20.5,17.6,13.7,81,74,66,30.45,30.08,10,4,10,0.01
2013-3-13,20.7,18.7,16.9,13.7,12.3,11.2,78,76,74,30.50,30.45,5,3,5,0.00
2013-3-17,31.7,25.7,12.1,22.2,16.1,5.1,74,67,61,30.45,30.10,7,3,7,0.00
2013-3-18,32.0,23.7,12.6,28.1,17.3,6.7,85,77,67,30.11,29.86,20,8,20,0.09
2013-3-19,21.8,13.0,6.8,7.9,4.0,0.5,78,68,54,30.47,30.11,16,8,16,0.01
2013-3-20,19.8,12.5,5.2,6.1,2.3,-2.2,72,64,53,30.50,30.38,14,6,14,0.00
2013-3-21,25.6,15.2,3.2,12.3,5.7,-3.5,75,66,57,30.38,30.29,6,1,6,0.00
2013-3-22,34.0,21.7,7.7,19.3,12.0,1.7,77,67,54,30.34,30.28,4,1,4,0.00
2013-3-23,36.5,27.3,16.0,22.6,17.6,10.4,78,67,52,30.41,30.31,4,2,4,0.00
2013-3-24,35.6,30.1,25.6,26.3,22.4,19.4,82,73,60,30.35,30.21,13,4,13,0.00
2013-3-25,37.1,30.9,25.7,24.5,20.5,17.9,80,66,51,30.47,30.28,10,4,10,0.00
2013-3-26,37.3,28.1,24.1,25.5,20.0,17.3,75,71,62,30.55,30.48,5,2,5,0.00
2013-3-27,43.6,30.1,17.6,27.6,20.8,12.6,83,69,53,30.59,30.54,5,0,5,0.00
2013-3-28,44.5,33.0,21.2,31.7,24.3,15.9,81,71,60,30.58,30.50,4,1,4,0.00
2013-3-29,51.8,40.3,31.3,41.5,32.7,25.4,81,74,67,30.51,30.29,5,1,5,0.00
2013-3-30,47.3,42.3,35.3,41.1,36.5,31.1,87,80,74,30.29,30.12,8,3,8,0.01
2013-3-31,38.7,34.1,25.2,31.5,26.0,15.7,90,73,56,30.36,30.07,16,7,16,0.01
2013-4-1,35.1,26.4,19.6,19.9,15.7,12.6,75,64,51,30.52,30.36,10,5,10,0.00
2013-4-2,36.9,28.8,22.3,20.1,18.1,15.8,77,65,49,30.60,30.51,9,3,9,0.00
2013-4-3,50.6,33.7,20.5,37.5,24.2,14.7,80,69,57,30.62,30.31,11,2,11,0.00
2013-4-4,49.0,42.4,34.0,35.2,30.5,25.0,77,63,47,30.42,30.26,13,5,13,0.00
2013-4-5,42.1,35.0,27.7,31.8,27.1,21.1,81,73,57,30.47,30.11,7,2,7,0.06
2013-4-6,56.3,44.5,37.6,46.7,37.0,31.9,82,75,68,30.09,29.74,10,3,10,0.10
2013-4-7,51.1,41.9,34.9,41.4,35.8,30.5,86,79,69,30.19,29.98,5,2,5,0.07
2013-4-8,48.1,44.2,41.0,44.4,40.9,38.2,91,88,85,30.26,29.90,10,3,10,0.52
2013-4-9,42.3,39.1,34.4,37.8,34.2,30.5,90,83,69,30.39,30.21,14,7,14,0.70
2013-4-10,36.4,34.7,32.0,32.4,31.3,29.3,90,87,85,30.42,30.12,11,4,11,0.25
2013-4-11,37.4,34.9,32.2,33.8,31.7,29.7,92,88,82,30.12,29.90,9,4,9,0.50
2013-4-12,37.1,33.1,29.5,30.8,29.2,26.7,92,85,76,30.09,29.92,8,2,8,0.17
2013-4-13,44.1,33.9,29.5,32.7,28.0,25.4,89,79,64,30.19,30.09,7,3,7,0.01
2013-4-14,38.2,34.3,32.0,35.5,30.1,26.9,90,85,80,30.17,29.70,10,4,10,0.52
2013-4-15,45.7,37.7,33.5,33.9,31.4,28.3,87,78,63,30.24,29.77,13,8,13,0.06
2013-4-16,46.3,37.7,33.5,32.7,29.4,27.0,81,72,59,30.55,30.24,8,3,8,0.00
2013-4-17,42.3,38.1,35.1,34.9,32.2,28.9,90,79,73,30.55,30.16,10,3,10,0.29
2013-4-18,35.6,34.0,33.3,32.9,31.4,30.3,92,90,88,30.17,29.79,12,6,12,0.09
2013-4-26,64.8,60.1,52.9,42.2,40.1,37.1,55,48,44,30.37,30.34,2,1,2,0.00
2013-4-27,85.5,59.4,38.9,49.7,41.3,32.3,79,54,29,30.38,30.15,7,2,7,0.00
2013-4-28,78.8,66.6,52.4,57.6,50.9,45.1,76,58,40,30.07,29.91,10,4,10,0.09
2013-4-29,85.0,62.7,50.0,55.7,48.5,41.9,74,61,37,30.07,29.77,6,1,6,0.00
2013-4-30,73.4,65.3,62.3,58.8,49.8,33.9,79,60,25,30.09,29.65,14,4,14,0.00
2013-5-1,40.9,37.5,34.0,35.4,33.0,29.9,87,84,78,30.70,30.48,6,2,6,0.25
2013-5-2,49.1,41.2,36.4,35.0,29.4,25.6,84,64,45,30.78,30.66,14,6,14,0.01
2013-5-3,39.1,36.5,33.7,33.1,28.9,24.5,83,74,62,30.65,30.39,12,6,12,0.00
2013-5-4,48.1,40.8,34.9,41.8,36.3,30.5,88,84,78,30.41,30.34,10,5,10,0.03
2013-5-5,64.3,49.4,40.3,52.0,42.5,35.8,85,78,64,30.42,30.32,6,2,6,0.00
2013-5-6,82.8,62.0,46.6,55.4,48.8,42.2,85,65,37,30.36,30.25,5,2,5,0.00
2013-5-7,83.5,65.1,49.3,56.1,50.1,43.7,82,60,37,30.31,30.19,7,1,7,0.00
2013-5-8,72.7,62.9,56.3,56.0,52.6,47.2,88,70,51,30.25,30.17,5,1,5,0.33
2013-5-9,61.2,55.9,46.4,55.4,50.3,34.9,88,82,64,30.34,30.19,16,5,16,0.04
2013-5-10,67.3,50.1,39.6,37.9,33.8,30.6,71,55,33,30.36,30.15,10,3,10,0.00
2013-5-11,56.3,50.7,43.0,41.2,30.0,22.4,69,47,30,30.40,30.13,15,7,15,0.04
2013-5-12,66.1,47.8,34.7,27.3,24.1,20.3,64,43,23,30.48,30.33,10,3,10,0.00
2013-5-13,79.9,58.2,37.3,51.9,38.9,25.5,75,51,37,30.35,29.89,10,2,10,0.00
2013-5-14,97.0,74.4,52.6,58.3,46.7,30.6,75,43,13,29.96,29.70,20,4,20,0.00
2013-5-15,86.0,67.1,54.4,53.7,47.5,41.2,67,50,32,30.18,29.96,9,3,9,0.01
2013-5-16,62.3,58.6,55.8,46.8,45.2,44.2,65,61,57,30.11,30.09,2,0,2,0.00
2013-5-25,59.9,57.0,54.7,51.5,49.3,47.3,79,76,72,30.49,30.44,7,3,7,0.01
2013-5-26,57.2,54.5,51.3,50.8,47.1,43.7,80,76,72,30.45,30.26,7,3,7,0.00
2013-5-27,61.6,58.1,55.4,55.5,52.7,50.0,88,82,79,30.27,30.07,9,3,9,0.00
2013-5-28,62.3,58.2,54.4,57.7,54.8,51.5,92,88,85,30.07,29.96,4,1,4,0.06
2013-5-29,76.3,64.6,54.2,71.1,60.8,51.8,94,88,80,30.04,29.87,5,2,5,0.12
2013-5-30,75.8,69.7,64.6,67.0,64.2,61.2,92,83,72,29.91,29.76,8,3,8,0.28
2013-5-31,76.0,68.9,63.0,61.8,58.2,54.5,87,70,53,29.79,29.75,14,4,14,0.06
2013-6-1,70.9,59.9,53.5,59.6,52.6,45.0,86,77,66,30.21,29.80,12,4,12,0.01
2013-6-2,72.7,57.3,48.6,48.9,44.0,42.3,80,62,43,30.33,30.21,6,3,6,0.00
2013-6-3,70.9,59.5,45.2,52.3,46.9,41.2,88,65,46,30.31,30.18,5,1,5,0.00
2013-6-4,63.7,60.8,57.1,54.5,51.3,47.4,79,71,56,30.31,30.22,5,2,5,0.02
2013-6-5,68.4,59.4,55.8,59.7,53.2,49.9,87,80,67,30.29,30.18,8,2,8,0.01
2013-6-6,58.9,55.8,52.9,53.1,51.2,49.2,88,85,79,30.29,30.21,6,2,6,0.00
2013-6-7,67.3,59.7,54.5,55.6,53.0,50.8,88,79,64,30.29,30.16,2,1,2,0.00
2013-6-8,70.9,63.3,55.1,58.6,54.6,51.3,89,74,60,30.16,30.11,3,1,3,0.00
2013-6-9,70.9,63.1,58.0,64.4,58.2,54.5,89,84,72,30.13,30.00,7,3,7,0.51
2013-6-10,81.7,67.5,62.1,67.4,61.8,56.9,93,82,62,30.11,30.05,5,1,5,0.00
2013-6-11,79.6,67.5,56.5,70.9,62.7,53.3,93,85,69,30.16,30.05,5,1,5,0.00
2013-6-12,70.0,66.9,62.3,66.2,62.9,57.9,95,87,74,30.18,30.02,6,2,6,2.52
2013-6-13,65.9,63.4,61.2,56.6,54.7,53.3,75,73,71,30.24,30.19,4,2,4,0.00
2013-6-19,85.7,85.7,85.7,63.7,63.7,63.7,48,48,48,30.18,30.18,1,1,1,0.00
2013-6-20,90.0,84.8,81.4,67.0,65.2,64.3,57,52,47,30.13,30.11,3,1,3,0.00
2013-6-21,82.1,73.5,65.7,71.4,65.9,61.6,88,78,57,30.27,30.01,15,3,15,0.91
2013-6-22,81.5,72.0,65.2,72.8,67.4,62.7,94,86,75,30.27,30.07,5,2,5,1.08
2013-6-23,89.3,75.9,69.8,72.0,68.7,64.1,91,79,57,30.14,29.93,9,4,9,0.36
2013-6-24,82.3,73.3,64.4,73.0,67.6,61.6,92,82,73,30.15,30.05,6,1,6,0.05
2013-6-25,88.0,76.4,67.3,77.0,69.6,63.0,89,80,69,30.07,29.95,6,1,6,0.00
2013-6-26,86.4,78.6,71.3,75.1,70.1,65.4,93,77,54,30.08,29.92,12,2,12,0.00
2013-6-27,91.8,78.2,69.7,69.0,63.1,57.2,88,63,39,30.10,30.05,16,4,16,0.00
2013-6-28,79.9,73.1,67.3,63.7,60.3,57.9,74,65,53,30.09,30.03,24,5,24,0.00
2013-6-29,79.6,70.3,65.2,61.8,59.0,52.4,85,69,49,30.24,30.01,8,4,8,0.02
2013-6-30,86.4,70.4,59.4,60.0,54.9,51.3,79,60,41,30.37,30.24,7,2,7,0.00
2013-7-1,85.3,73.1,60.8,63.4,58.8,54.9,83,63,44,30.43,30.37,6,1,6,0.00
2013-7-2,88.9,73.4,61.6,60.8,57.7,55.7,83,60,39,30.41,30.30,6,1,6,0.00
2013-7-3,75.6,65.8,61.9,61.2,57.6,55.4,79,75,61,30.32,30.20,1,0,1,0.00
2013-7-4,94.0,77.4,63.2,65.4,60.3,56.0,81,58,35,30.21,30.11,8,2,8,0.00
2013-7-5,94.7,80.8,70.9,69.1,62.7,56.0,65,55,42,30.15,30.04,9,3,9,0.00
2013-7-6,93.6,82.1,73.6,72.1,66.0,61.1,66,59,46,30.12,30.04,6,2,6,0.00
2013-7-7,91.8,81.1,71.6,74.4,68.9,65.1,86,67,56,30.14,30.05,6,2,6,0.18
2013-7-8,94.0,78.2,69.1,77.2,70.6,65.7,90,78,56,30.25,30.14,7,1,7,0.00
2013-7-9,86.8,78.0,69.7,72.4,70.2,66.6,93,78,60,30.19,30.04,17,2,17,0.80
2013-7-10,84.6,72.1,66.6,65.1,62.4,60.0,80,72,50,30.31,30.19,0,0,0,0.00
2013-7-11,90.7,75.7,61.6,66.3,61.5,57.3,88,64,43,30.37,30.22,0,0,0,0.01
2013-7-12,89.8,80.0,69.3,67.9,62.6,57.1,67,56,46,30.26,30.14,0,0,0,0.00
2013-7-13,78.1,72.9,66.4,70.6,64.8,60.5,90,77,57,30.33,30.16,0,0,0,1.73
2013-7-14,86.4,76.2,68.6,71.8,67.2,61.7,84,74,59,30.42,30.30,0,0,0,0.00
2013-7-15,89.8,78.3,67.0,74.0,69.3,63.3,90,75,57,30.48,30.40,0,0,0,0.00
2013-7-16,97.6,82.7,72.9,78.3,73.1,68.9,89,74,53,30.46,30.41,0,0,0,0.00
2013-7-17,98.1,83.5,72.4,79.9,73.6,68.6,90,73,56,30.50,30.36,0,0,0,0.00
2013-7-18,97.2,83.9,73.6,76.5,72.8,69.8,88,71,50,30.36,30.03,0,0,0,0.00
2013-7-19,86.2,79.1,70.2,71.5,66.2,62.2,84,66,50,30.16,29.99,0,0,0,0.07
2013-7-20,85.9,72.8,65.0,69.4,63.4,60.0,85,73,58,30.20,30.14,0,0,0,0.00
2013-7-21,89.6,73.1,63.5,73.6,63.5,56.3,80,72,58,30.20,30.04,0,0,0,0.03
2013-7-22,85.3,76.0,68.0,73.9,66.5,57.6,88,73,51,30.11,29.94,0,0,0,0.00
2013-7-23,80.8,68.9,61.0,59.2,56.7,55.1,81,66,48,30.27,30.11,0,0,0,0.00
2013-7-24,86.6,67.8,59.8,66.3,59.3,54.6,85,75,51,30.32,30.22,0,0,0,0.00
2013-7-25,84.6,72.3,62.5,69.8,63.5,57.5,85,75,60,30.24,30.16,0,0,0,0.06
2013-7-26,70.7,65.0,57.2,64.3,56.4,49.0,87,74,59,30.34,30.16,0,0,0,0.04
2013-7-27,65.3,58.4,50.6,51.2,48.3,46.2,86,70,55,30.34,30.19,0,0,0,0.00
2013-7-28,76.0,61.1,49.7,59.1,50.6,43.7,82,69,53,30.31,30.22,0,0,0,0.00
2013-7-29,79.9,66.6,52.4,61.0,56.1,48.4,89,71,49,30.37,30.31,0,0,0,0.00
2013-7-30,73.4,68.3,64.4,66.6,62.4,58.0,87,81,70,30.35,30.30,0,0,0,0.05
2013-7-31,84.2,68.4,61.6,68.1,61.6,57.8,91,80,53,30.33,30.25,0,0,0,0.08
2013-8-1,85.1,70.0,55.8,69.8,59.4,51.7,87,71,51,30.30,30.11,0,0,0,0.00
2013-8-2,84.2,69.3,59.2,61.2,57.7,53.1,84,68,46,30.30,30.11,0,0,0,0.00
2013-8-3,84.1,67.1,54.0,60.5,55.0,49.4,87,67,40,30.45,30.30,0,0,0,0.00
2013-8-4,85.0,65.4,53.1,65.4,56.9,48.4,86,75,51,30.48,30.24,0,0,0,0.00
2013-8-5,86.4,70.3,62.1,70.4,63.8,56.3,92,81,57,30.27,30.05,0,0,0,0.70
2013-8-6,90.4,71.9,59.2,72.6,63.7,56.2,90,76,56,30.11,29.95,0,0,0,0.01
2013-8-7,82.4,67.1,61.9,61.9,57.5,55.3,87,73,46,30.29,30.05,0,0,0,0.01
2013-8-8,78.1,64.9,56.2,66.1,58.1,52.0,90,79,64,30.32,30.24,0,0,0,0.04
2013-8-9,80.6,66.9,58.9,61.2,56.6,54.6,90,71,48,30.38,30.26,0,0,0,0.01
2013-8-10,75.6,66.4,57.4,61.8,57.5,53.3,88,74,54,30.44,30.33,0,0,0,0.00
2013-8-11,77.0,68.1,64.4,67.3,62.2,59.0,86,81,72,30.34,30.29,0,0,0,0.00